Time;durP1;ratioP1;P1;durP2;ratioP2;P2;SDS_P1;SDS_P2;PMS_P1;PMS_P2;Temp;Humidity;BMP_temperature;BMP_pressure;BME280_temperature;BME280_humidity;BME280_pressure;Samples;Min_cycle;Max_cycle;Signal;HPM_P1;HPM_P2
2021/10/12 00:00:06;;;;;;;;;;;20.10;48.80;;;;;;5025556;28;19921;-73
2021/10/12 00:02:31;;;;;;;;;;;20.10;48.70;;;;;;5016767;28;19924;-73
2021/10/12 00:04:56;;;;;;;;;;;20.10;48.70;;;;;;5021532;28;20047;-73
2021/10/12 00:07:22;;;;;;;;;;;20.10;48.80;;;;;;5022996;28;19917;-73
2021/10/12 00:09:47;;;;;;;;;;;20.10;48.70;;;;;;5018417;28;19918;-73
2021/10/12 00:12:13;;;;;;;;;;;20.10;48.80;;;;;;5017514;28;19924;-74
2021/10/12 00:14:38;;;;;;;;;;;20.10;48.80;;;;;;5015209;28;19917;-75
2021/10/12 00:17:04;;;;;;;;;;;20.10;48.80;;;;;;5020835;28;19921;-75
2021/10/12 00:19:29;;;;;;;;;;;20.20;48.80;;;;;;5020521;28;20347;-75
2021/10/12 00:21:55;;;;;;;;;;;20.10;48.70;;;;;;5018773;28;19924;-74
2021/10/12 00:24:20;;;;;;;;;;;20.10;48.80;;;;;;5018150;28;19944;-75
2021/10/12 00:26:46;;;;;;;;;;;20.10;48.80;;;;;;5017499;28;19917;-74
2021/10/12 00:29:11;;;;;;;;;;;20.10;48.80;;;;;;5011102;28;19920;-74
2021/10/12 00:31:37;;;;;;;;;;;20.10;48.80;;;;;;5015467;28;20012;-74
2021/10/12 00:34:02;;;;;;;;;;;20.10;48.80;;;;;;5016857;28;20396;-74
2021/10/12 00:36:28;;;;;;;;;;;20.10;48.80;;;;;;5015477;28;20444;-75
2021/10/12 00:38:54;;;;;;;;;;;20.10;48.70;;;;;;5021841;28;19948;-74
2021/10/12 00:41:20;;;;;;;;;;;20.10;48.80;;;;;;5016351;28;21222;-75
2021/10/12 00:43:46;;;;;;;;;;;20.10;48.80;;;;;;5018032;28;19924;-75
2021/10/12 00:46:11;;;;;;;;;;;20.10;48.80;;;;;;5018288;28;19940;-75
2021/10/12 00:48:37;;;;;;;;;;;20.10;48.80;;;;;;5018053;28;19978;-74
2021/10/12 00:51:02;;;;;;;;;;;20.10;48.80;;;;;;5019848;28;19921;-74
2021/10/12 00:53:29;;;;;;;;;;;20.10;48.80;;;;;;5022017;28;19959;-73
2021/10/12 00:55:56;;;;;;;;;;;20.10;48.90;;;;;;5020002;28;20393;-74
2021/10/12 00:58:21;;;;;;;;;;;20.10;48.90;;;;;;5015418;28;20297;-73
2021/10/12 01:00:47;;;;;;;;;;;20.10;48.90;;;;;;5011798;28;19913;-73
2021/10/12 01:03:12;;;;;;;;;;;20.10;48.80;;;;;;5023033;28;19992;-73
2021/10/12 01:05:38;;;;;;;;;;;20.10;48.90;;;;;;5018812;28;19950;-73
2021/10/12 01:08:04;;;;;;;;;;;20.10;48.80;;;;;;5020075;28;20689;-73
2021/10/12 01:10:29;;;;;;;;;;;20.20;48.90;;;;;;5019627;28;20459;-74
2021/10/12 01:12:55;;;;;;;;;;;20.20;48.90;;;;;;5020426;28;19971;-74
2021/10/12 01:15:21;;;;;;;;;;;20.20;48.90;;;;;;5016896;28;19924;-74
2021/10/12 01:17:46;;;;;;;;;;;20.10;48.80;;;;;;5023458;28;19913;-74
2021/10/12 01:20:13;;;;;;;;;;;20.20;48.90;;;;;;5020001;28;19921;-74
2021/10/12 01:22:39;;;;;;;;;;;20.20;48.90;;;;;;5015523;28;20516;-73
2021/10/12 01:25:05;;;;;;;;;;;20.20;48.90;;;;;;5015352;28;20000;-74
2021/10/12 01:27:31;;;;;;;;;;;20.20;48.90;;;;;;5007866;28;19923;-74
2021/10/12 01:29:56;;;;;;;;;;;20.10;48.90;;;;;;5017862;28;19921;-74
2021/10/12 01:32:22;;;;;;;;;;;20.20;48.90;;;;;;5020081;28;20396;-73
2021/10/12 01:34:47;;;;;;;;;;;20.10;48.90;;;;;;5018834;28;19994;-73
2021/10/12 01:37:12;;;;;;;;;;;20.10;48.90;;;;;;5018886;28;19917;-73
2021/10/12 01:39:38;;;;;;;;;;;20.10;48.90;;;;;;5017862;28;19923;-73
2021/10/12 01:42:05;;;;;;;;;;;20.10;48.90;;;;;;5015282;28;19971;-73
2021/10/12 01:44:30;;;;;;;;;;;20.10;48.90;;;;;;5021238;28;20369;-73
2021/10/12 01:46:56;;;;;;;;;;;20.10;48.90;;;;;;5014395;28;19917;-73
2021/10/12 01:49:22;;;;;;;;;;;20.10;48.90;;;;;;5015560;28;19917;-73
2021/10/12 01:51:48;;;;;;;;;;;20.10;49.00;;;;;;5022431;28;19920;-73
2021/10/12 01:54:15;;;;;;;;;;;20.10;49.00;;;;;;5017832;28;19967;-73
2021/10/12 01:56:40;;;;;;;;;;;20.10;49.00;;;;;;5020064;28;20047;-73
2021/10/12 01:59:06;;;;;;;;;;;20.10;49.00;;;;;;5017769;28;20016;-74
2021/10/12 02:01:31;;;;;;;;;;;20.10;48.90;;;;;;5018992;28;20328;-73
2021/10/12 02:03:56;;;;;;;;;;;20.10;48.90;;;;;;5016478;28;20012;-74
2021/10/12 02:06:22;;;;;;;;;;;20.20;49.00;;;;;;5014820;28;19924;-74
2021/10/12 02:08:48;;;;;;;;;;;20.20;49.10;;;;;;5014056;28;20643;-74
2021/10/12 02:11:13;;;;;;;;;;;20.20;49.00;;;;;;5019655;28;19928;-74
2021/10/12 02:13:38;;;;;;;;;;;20.10;48.90;;;;;;5019571;28;20447;-74
2021/10/12 02:16:04;;;;;;;;;;;20.20;48.90;;;;;;5015339;28;19917;-74
2021/10/12 02:18:29;;;;;;;;;;;20.20;48.90;;;;;;5018233;28;20020;-74
2021/10/12 02:20:55;;;;;;;;;;;20.20;48.90;;;;;;5018602;28;19983;-74
2021/10/12 02:23:20;;;;;;;;;;;20.20;48.90;;;;;;5018599;28;19917;-74
2021/10/12 02:25:46;;;;;;;;;;;20.20;48.90;;;;;;5018326;28;19917;-74
2021/10/12 02:28:11;;;;;;;;;;;20.20;49.00;;;;;;5031868;28;19914;-74
2021/10/12 02:30:37;;;;;;;;;;;20.20;49.10;;;;;;5012894;28;19935;-74
2021/10/12 02:33:03;;;;;;;;;;;20.20;49.00;;;;;;5018028;28;19917;-75
2021/10/12 02:35:29;;;;;;;;;;;20.20;49.00;;;;;;5018020;28;20655;-75
2021/10/12 02:37:55;;;;;;;;;;;20.10;48.90;;;;;;5016196;28;19913;-75
2021/10/12 02:40:20;;;;;;;;;;;20.20;49.00;;;;;;5012862;28;19921;-74
2021/10/12 02:42:46;;;;;;;;;;;20.10;48.90;;;;;;5016590;28;19917;-74
2021/10/12 02:45:11;;;;;;;;;;;20.20;49.00;;;;;;5018783;28;19921;-74
2021/10/12 02:47:37;;;;;;;;;;;20.20;49.10;;;;;;5013479;28;19913;-74
2021/10/12 02:50:03;;;;;;;;;;;20.10;49.00;;;;;;5019143;28;19967;-75
2021/10/12 02:52:29;;;;;;;;;;;20.10;48.90;;;;;;5020768;28;19994;-74
2021/10/12 02:54:55;;;;;;;;;;;20.20;49.00;;;;;;5014695;28;19920;-74
2021/10/12 02:57:21;;;;;;;;;;;20.10;48.90;;;;;;5025836;28;19951;-74
2021/10/12 02:59:46;;;;;;;;;;;20.10;48.90;;;;;;5015353;28;19951;-75
2021/10/12 03:02:12;;;;;;;;;;;20.10;48.90;;;;;;5020451;28;19928;-74
2021/10/12 03:04:37;;;;;;;;;;;20.10;48.90;;;;;;5016995;28;19924;-74
2021/10/12 03:07:03;;;;;;;;;;;20.10;49.00;;;;;;5010020;28;20348;-74
2021/10/12 03:09:28;;;;;;;;;;;20.10;48.90;;;;;;5017582;28;19917;-74
2021/10/12 03:11:54;;;;;;;;;;;20.20;49.00;;;;;;5013527;28;19923;-74
2021/10/12 03:14:19;;;;;;;;;;;20.10;48.90;;;;;;5017562;28;19968;-74
2021/10/12 03:16:45;;;;;;;;;;;20.10;48.90;;;;;;5020779;28;20839;-74
2021/10/12 03:19:12;;;;;;;;;;;20.10;48.90;;;;;;5018978;28;19960;-73
2021/10/12 03:21:42;;;;;;;;;;;20.20;49.00;;;;;;5010055;28;19920;-73
2021/10/12 03:24:08;;;;;;;;;;;20.20;49.00;;;;;;5011403;28;19928;-74
2021/10/12 03:26:33;;;;;;;;;;;20.20;49.00;;;;;;5014923;28;19921;-74
2021/10/12 03:28:59;;;;;;;;;;;20.20;49.00;;;;;;5017516;28;19975;-74
2021/10/12 03:31:24;;;;;;;;;;;20.20;49.00;;;;;;5013770;28;19917;-74
2021/10/12 03:33:50;;;;;;;;;;;20.20;48.90;;;;;;5014216;28;19999;-74
2021/10/12 03:36:16;;;;;;;;;;;20.20;49.00;;;;;;5012832;28;20015;-74
2021/10/12 03:38:41;;;;;;;;;;;20.20;49.00;;;;;;5019950;28;19913;-74
2021/10/12 03:41:07;;;;;;;;;;;20.20;49.10;;;;;;5017507;28;19913;-74
2021/10/12 03:43:32;;;;;;;;;;;20.20;49.10;;;;;;5019326;28;19914;-73
2021/10/12 03:45:58;;;;;;;;;;;20.20;49.00;;;;;;5015113;28;19917;-73
2021/10/12 03:48:23;;;;;;;;;;;20.20;49.00;;;;;;5017868;28;20416;-74
2021/10/12 03:50:49;;;;;;;;;;;20.20;48.90;;;;;;5021718;28;20355;-73
2021/10/12 03:53:14;;;;;;;;;;;20.20;49.00;;;;;;5014457;28;19913;-74
2021/10/12 03:55:40;;;;;;;;;;;20.10;48.90;;;;;;5019007;28;19924;-75
2021/10/12 03:58:05;;;;;;;;;;;20.20;49.00;;;;;;5012878;28;20336;-74
2021/10/12 04:00:32;;;;;;;;;;;20.20;49.10;;;;;;5014165;28;19925;-73
2021/10/12 04:02:58;;;;;;;;;;;20.20;49.10;;;;;;5015152;28;19925;-73
2021/10/12 04:05:24;;;;;;;;;;;20.20;49.10;;;;;;5018568;28;19938;-73
2021/10/12 04:07:49;;;;;;;;;;;20.20;49.10;;;;;;5016684;28;20352;-73
2021/10/12 04:10:15;;;;;;;;;;;20.20;49.10;;;;;;5016534;28;19917;-73
2021/10/12 04:12:40;;;;;;;;;;;20.20;49.10;;;;;;5019174;28;20407;-73
2021/10/12 04:15:06;;;;;;;;;;;20.20;49.10;;;;;;5016285;28;20412;-74
2021/10/12 04:17:31;;;;;;;;;;;20.10;49.00;;;;;;5033724;28;19917;-73
2021/10/12 04:19:57;;;;;;;;;;;20.10;49.10;;;;;;5018325;28;19913;-73
2021/10/12 04:22:22;;;;;;;;;;;20.10;49.10;;;;;;5021079;28;20009;-73
2021/10/12 04:24:49;;;;;;;;;;;20.10;49.00;;;;;;5014644;28;19921;-73
2021/10/12 04:27:14;;;;;;;;;;;20.10;49.00;;;;;;5013776;28;19963;-73
2021/10/12 04:29:40;;;;;;;;;;;20.20;49.10;;;;;;5019881;28;20015;-73
2021/10/12 04:32:08;;;;;;;;;;;20.20;49.10;;;;;;5020455;28;19921;-73
2021/10/12 04:34:33;;;;;;;;;;;20.10;49.00;;;;;;5011801;28;20634;-73
2021/10/12 04:36:59;;;;;;;;;;;20.20;49.10;;;;;;5016586;28;19924;-73
2021/10/12 04:39:25;;;;;;;;;;;20.20;49.10;;;;;;5019266;28;20316;-73
2021/10/12 04:41:50;;;;;;;;;;;20.20;49.10;;;;;;5019112;28;19964;-73
2021/10/12 04:44:16;;;;;;;;;;;20.20;49.10;;;;;;5017995;28;19917;-73
2021/10/12 04:46:41;;;;;;;;;;;20.20;49.10;;;;;;5020479;28;20020;-73
2021/10/12 04:49:07;;;;;;;;;;;20.20;49.00;;;;;;5024849;28;19920;-73
2021/10/12 04:51:33;;;;;;;;;;;20.20;49.10;;;;;;5017186;28;19932;-73
2021/10/12 04:53:58;;;;;;;;;;;20.20;49.10;;;;;;5017119;28;19917;-74
2021/10/12 04:56:24;;;;;;;;;;;20.20;49.10;;;;;;5017138;28;19928;-73
2021/10/12 04:58:49;;;;;;;;;;;20.20;49.10;;;;;;5016800;28;19921;-73
2021/10/12 05:01:15;;;;;;;;;;;20.20;49.00;;;;;;5018822;28;20396;-73
2021/10/12 05:03:40;;;;;;;;;;;20.20;49.00;;;;;;5018476;28;20067;-74
2021/10/12 05:06:06;;;;;;;;;;;20.20;49.10;;;;;;5016371;28;19922;-73
2021/10/12 05:08:31;;;;;;;;;;;20.20;49.10;;;;;;5015106;28;19956;-73
2021/10/12 05:10:57;;;;;;;;;;;20.20;49.30;;;;;;5023342;28;19960;-73
2021/10/12 05:13:22;;;;;;;;;;;20.20;49.10;;;;;;5023421;28;20656;-73
2021/10/12 05:15:49;;;;;;;;;;;20.20;49.10;;;;;;5017601;28;20407;-73
2021/10/12 05:18:23;;;;;;;;;;;20.10;48.90;;;;;;5014368;28;19953;-73
2021/10/12 05:20:48;;;;;;;;;;;20.20;49.10;;;;;;5018721;28;19925;-73
2021/10/12 05:23:14;;;;;;;;;;;20.20;49.00;;;;;;5019524;28;20343;-73
2021/10/12 05:25:40;;;;;;;;;;;20.10;49.00;;;;;;5016968;28;19929;-74
2021/10/12 05:28:07;;;;;;;;;;;20.20;49.10;;;;;;5019457;28;20569;-74
2021/10/12 05:30:34;;;;;;;;;;;20.10;49.10;;;;;;5016592;28;20012;-73
2021/10/12 05:32:59;;;;;;;;;;;20.20;49.10;;;;;;5014544;28;19931;-73
2021/10/12 05:35:25;;;;;;;;;;;20.20;49.00;;;;;;5016125;28;19922;-73
2021/10/12 05:37:50;;;;;;;;;;;20.20;49.00;;;;;;5018970;28;19921;-73
2021/10/12 05:40:16;;;;;;;;;;;20.20;49.00;;;;;;5015015;28;19932;-74
2021/10/12 05:42:41;;;;;;;;;;;20.20;49.00;;;;;;5014562;28;20011;-73
2021/10/12 05:45:07;;;;;;;;;;;20.20;49.00;;;;;;5018540;28;20424;-74
2021/10/12 05:47:32;;;;;;;;;;;20.20;49.10;;;;;;5017624;28;20298;-74
2021/10/12 05:49:58;;;;;;;;;;;20.20;49.10;;;;;;5020285;28;19949;-74
2021/10/12 05:52:25;;;;;;;;;;;20.20;49.00;;;;;;5021043;28;19925;-75
2021/10/12 05:57:39;;;;;;;;;;;20.20;49.00;;;;;;5015873;28;19924;-74
2021/10/12 06:00:05;;;;;;;;;;;20.20;49.00;;;;;;5010351;28;19932;-75
2021/10/12 06:02:30;;;;;;;;;;;20.20;49.00;;;;;;5006523;28;19952;-75
2021/10/12 06:04:56;;;;;;;;;;;20.20;49.00;;;;;;5007340;28;19924;-74
2021/10/12 06:07:21;;;;;;;;;;;20.20;49.00;;;;;;5008332;28;20369;-75
2021/10/12 06:09:47;;;;;;;;;;;20.20;48.90;;;;;;5010969;28;20334;-75
2021/10/12 06:12:12;;;;;;;;;;;20.20;48.90;;;;;;5016654;28;20017;-74
2021/10/12 06:14:38;;;;;;;;;;;20.20;48.90;;;;;;5009163;28;19927;-74
2021/10/12 06:17:03;;;;;;;;;;;20.20;48.90;;;;;;5015614;28;20319;-75
2021/10/12 06:19:29;;;;;;;;;;;20.20;48.80;;;;;;5016364;28;19924;-75
2021/10/12 06:21:54;;;;;;;;;;;20.20;48.80;;;;;;5021289;28;19917;-75
2021/10/12 06:24:20;;;;;;;;;;;20.20;48.80;;;;;;5017325;28;20438;-75
2021/10/12 06:26:45;;;;;;;;;;;20.20;48.70;;;;;;5014168;28;19913;-74
2021/10/12 06:29:11;;;;;;;;;;;20.20;48.80;;;;;;5014121;28;19925;-74
2021/10/12 06:31:37;;;;;;;;;;;20.20;49.10;;;;;;5009185;28;19925;-74
2021/10/12 06:34:02;;;;;;;;;;;20.20;48.70;;;;;;5012325;28;19921;-74
2021/10/12 06:36:28;;;;;;;;;;;20.20;48.70;;;;;;5012589;28;19920;-75
2021/10/12 06:38:53;;;;;;;;;;;20.20;48.70;;;;;;5016855;28;19922;-74
2021/10/12 06:41:19;;;;;;;;;;;20.20;48.70;;;;;;5012306;28;19921;-74
2021/10/12 06:43:47;;;;;;;;;;;20.20;48.60;;;;;;5013007;28;19921;-74
2021/10/12 06:46:14;;;;;;;;;;;20.20;48.60;;;;;;5011197;28;19913;-74
2021/10/12 06:48:39;;;;;;;;;;;20.30;48.70;;;;;;5018483;28;20647;-74
2021/10/12 06:51:05;;;;;;;;;;;20.20;48.60;;;;;;5014326;28;19999;-75
2021/10/12 06:53:30;;;;;;;;;;;20.20;48.60;;;;;;5014286;28;19921;-74
2021/10/12 06:55:58;;;;;;;;;;;20.30;48.60;;;;;;5014757;28;21752;-74
2021/10/12 06:58:24;;;;;;;;;;;20.30;48.60;;;;;;5014687;28;20524;-74
2021/10/12 07:00:49;;;;;;;;;;;20.20;48.50;;;;;;5013329;28;19952;-74
2021/10/12 07:03:15;;;;;;;;;;;20.20;48.60;;;;;;5009673;28;20396;-75
2021/10/12 07:05:40;;;;;;;;;;;20.30;48.70;;;;;;5007432;28;21871;-75
2021/10/12 07:08:06;;;;;;;;;;;20.30;48.90;;;;;;5016492;28;19921;-75
2021/10/12 07:10:31;;;;;;;;;;;20.30;48.60;;;;;;5016908;28;19921;-75
2021/10/12 07:12:57;;;;;;;;;;;20.30;48.70;;;;;;5011496;28;19968;-75
2021/10/12 07:15:22;;;;;;;;;;;20.30;48.70;;;;;;5016274;28;19921;-75
2021/10/12 07:17:48;;;;;;;;;;;20.30;48.60;;;;;;5013343;28;19921;-75
2021/10/12 07:20:13;;;;;;;;;;;20.30;48.70;;;;;;5009119;28;19917;-75
2021/10/12 07:22:39;;;;;;;;;;;20.30;48.80;;;;;;5014205;28;19917;-74
2021/10/12 07:25:06;;;;;;;;;;;20.30;49.00;;;;;;5013855;28;19960;-75
2021/10/12 07:27:32;;;;;;;;;;;20.30;49.60;;;;;;5010829;28;19922;-74
2021/10/12 07:29:58;;;;;;;;;;;20.30;48.90;;;;;;5012990;28;19921;-75
2021/10/12 07:32:23;;;;;;;;;;;20.30;48.90;;;;;;5005470;28;20418;-74
2021/10/12 07:34:49;;;;;;;;;;;20.30;49.00;;;;;;5009119;28;19929;-75
2021/10/12 07:37:14;;;;;;;;;;;20.30;49.20;;;;;;5008906;28;19921;-74
2021/10/12 07:39:42;;;;;;;;;;;20.40;49.30;;;;;;5015268;28;20012;-74
2021/10/12 07:42:09;;;;;;;;;;;20.40;49.20;;;;;;5019108;28;19931;-74
2021/10/12 07:44:34;;;;;;;;;;;20.40;49.70;;;;;;5014907;28;19928;-76
2021/10/12 07:47:00;;;;;;;;;;;20.40;49.40;;;;;;5019374;28;19913;-75
2021/10/12 07:49:25;;;;;;;;;;;20.40;49.30;;;;;;5009291;28;19995;-75
2021/10/12 07:51:51;;;;;;;;;;;20.40;48.90;;;;;;5012995;28;19928;-75
2021/10/12 07:54:24;;;;;;;;;;;20.40;49.00;;;;;;5016332;28;19921;-75
2021/10/12 07:56:50;;;;;;;;;;;20.40;49.00;;;;;;5014255;28;19921;-75
2021/10/12 07:59:18;;;;;;;;;;;20.40;49.00;;;;;;5016646;28;20785;-74
2021/10/12 08:01:44;;;;;;;;;;;20.50;49.20;;;;;;5016884;28;20414;-74
2021/10/12 08:04:10;;;;;;;;;;;20.50;49.00;;;;;;5017681;28;19975;-74
2021/10/12 08:06:35;;;;;;;;;;;20.50;49.00;;;;;;5015624;28;19914;-74
2021/10/12 08:09:01;;;;;;;;;;;20.50;48.90;;;;;;5019386;28;19917;-76
2021/10/12 08:11:28;;;;;;;;;;;20.60;48.90;;;;;;5025513;28;20381;-74
2021/10/12 08:13:57;;;;;;;;;;;20.60;48.90;;;;;;5021157;28;19917;-74
2021/10/12 08:16:29;;;;;;;;;;;20.60;48.80;;;;;;5013939;28;19975;-74
2021/10/12 08:18:55;;;;;;;;;;;20.60;48.80;;;;;;5020644;28;19922;-74
2021/10/12 08:21:20;;;;;;;;;;;20.60;48.60;;;;;;5015054;28;20020;-75
2021/10/12 08:23:46;;;;;;;;;;;20.60;48.60;;;;;;5021045;28;19921;-74
2021/10/12 08:26:11;;;;;;;;;;;20.60;48.60;;;;;;5017098;28;19922;-74
2021/10/12 08:28:36;;;;;;;;;;;20.60;48.80;;;;;;5021309;28;19966;-74
2021/10/12 08:31:02;;;;;;;;;;;20.60;48.80;;;;;;5022209;28;19932;-76
2021/10/12 08:33:27;;;;;;;;;;;20.50;48.50;;;;;;5022710;28;19920;-74
2021/10/12 08:35:53;;;;;;;;;;;20.50;48.60;;;;;;5018063;28;20040;-74
2021/10/12 08:38:19;;;;;;;;;;;20.50;48.70;;;;;;5024829;28;20398;-75
2021/10/12 08:40:45;;;;;;;;;;;20.50;48.70;;;;;;5025439;28;20393;-74
2021/10/12 08:43:11;;;;;;;;;;;20.50;48.90;;;;;;5018655;28;19964;-75
2021/10/12 08:45:37;;;;;;;;;;;20.50;48.80;;;;;;5007216;28;19919;-74
2021/10/12 08:48:04;;;;;;;;;;;20.60;49.10;;;;;;5015828;28;19913;-75
2021/10/12 08:50:30;;;;;;;;;;;20.70;49.30;;;;;;5008248;28;20728;-75
2021/10/12 08:52:55;;;;;;;;;;;20.70;49.20;;;;;;5015327;28;19960;-75
2021/10/12 08:55:21;;;;;;;;;;;20.80;48.90;;;;;;5024819;28;19921;-75
2021/10/12 08:57:46;;;;;;;;;;;20.80;48.80;;;;;;5014648;28;20451;-70
2021/10/12 09:00:19;;;;;;;;;;;21.10;49.20;;;;;;5012878;28;19921;-70
2021/10/12 09:03:16;;;;;;;;;;;21.30;48.00;;;;;;5014654;28;20065;-72
2021/10/12 09:05:52;;;;;;;;;;;21.50;47.80;;;;;;5014958;28;20309;-69
2021/10/12 09:08:24;;;;;;;;;;;21.90;47.80;;;;;;5018325;28;20373;-68
2021/10/12 09:10:50;;;;;;;;;;;21.70;47.20;;;;;;5019753;28;19940;-68
2021/10/12 09:13:17;;;;;;;;;;;21.60;47.60;;;;;;5021334;28;19956;-69
2021/10/12 09:16:01;;;;;;;;;;;21.50;47.50;;;;;;5019395;28;19921;-69
2021/10/12 09:18:34;;;;;;;;;;;21.50;47.30;;;;;;5024631;28;20011;-68
2021/10/12 09:21:11;;;;;;;;;;;21.40;47.70;;;;;;5018538;28;20610;-71
2021/10/12 09:23:40;;;;;;;;;;;21.30;48.00;;;;;;5015970;28;19971;-68
